Tuesday, November 13, 2018, 8:05 PM EST
Back to Local

KTEB, Teterboro Airport

Location: South Hackensack, NJ, United States Lat: 40.867
Local Time: 8:05 PM EST ( 1:05 GMT) Lon: -74.05
Time Zone: US/Eastern Elev: 9 ft

Show me the last for .
Show Decoded

2018-11-13 19:51 METAR KTEB 140051Z 30011G17KT 10SM OVC100 07/01 A3003 RMK AO2 SLP169 T00670006 =
2018-11-13 18:51 METAR KTEB 132351Z 33012G18KT 10SM FEW035 OVC095 07/01 A3002 RMK AO2 SLP167
                 T00720006 10094 20067 53030 =
2018-11-13 17:51 METAR KTEB 132251Z 33010G19KT 10SM OVC095 07/01 A2999 RMK AO2 SLP154 T00720011 =
2018-11-13 16:51 METAR KTEB 132151Z 30010G18KT 10SM SCT031 OVC090 08/02 A2995 RMK AO2 SLP143
                 T00780017 =
2018-11-13 15:51 METAR KTEB 132051Z 30011KT 10SM OVC095 08/03 A2994 RMK AO2 PRESRR SLP137
                 T00830028 53031 =
2018-11-13 14:51 METAR KTEB 131951Z 32015G21KT 10SM OVC110 09/04 A2988 RMK AO2 SLP118 T00890044 =
2018-11-13 13:51 METAR KTEB 131851Z 35006KT 10SM FEW021 SCT120 09/06 A2986 RMK AO2 SLP110
                 T00940061 =
2018-11-13 13:30 METAR KTEB 131830Z 34010KT 10SM SCT017 OVC110 08/06 A2986 RMK AO2 T00830056 =
2018-11-13 12:51 METAR KTEB 131751Z 33010KT 10SM BKN017 OVC050 09/06 A2984 RMK AO2 DZE18 SLP106
                 P0000 60032 T00890061 10094 20067 53002 =
2018-11-13 11:51 METAR KTEB 131651Z 34009KT 6SM -DZ BR OVC011 08/07 A2983 RMK AO2 RAE34DZB34
                 SLP100 P0000 T00780067 =
2018-11-13 10:53 METAR KTEB 131553Z 36011KT 2SM -RA BR BKN006 OVC013 07/07 A2984 RMK AO2 CIG
                 005V009 P0000 T00720067 =
2018-11-13 10:51 METAR KTEB 131551Z 35011KT 1SM R06/P6000FT -RA BR BKN004 OVC009 07/07 A2984 RMK
                 AO2 SLP104 P0004 T00720067 =
2018-11-13 10:05 METAR KTEB 131505Z 01009KT 1 1/4SM R06/5000VP6000FT -RA BR BKN004 OVC009 09/08
                 A2984 RMK AO2 P0001 T00890083 =
2018-11-13 09:51 METAR KTEB 131451Z 35008KT 1SM R06/5500VP6000FT -RA BR OVC005 09/08 A2984 RMK
                 AO2 SLP104 P0003 60028 T00890083 56041 =
2018-11-13 09:16 METAR KTEB 131416Z 01007KT 1SM R06/P6000FT -RA BR OVC005 09/08 A2984 RMK AO2
                 P0001 T00890083 =
2018-11-13 08:51 METAR KTEB 131351Z 35007G14KT 2SM -RA BR BKN004 OVC009 08/08 A2986 RMK AO2
                 SLP112 P0009 T00830083 =
2018-11-13 08:22 METAR KTEB 131322Z 36008KT 1/2SM R06/P6000FT -RA BR BKN004 BKN010 OVC015 08/08
                 A2988 RMK AO2 SFC VIS 1 P0004 T00830078 $ =
2018-11-13 08:03 METAR KTEB 131303Z 04008KT 1 1/2SM -RA BR BKN004 BKN010 OVC015 08/08 A2988 RMK
                 AO2 P0001 T00780078 $ =
2018-11-13 07:56 METAR KTEB 131256Z 03005KT 2SM -RA BR SCT004 BKN010 OVC015 08/07 A2989 =
2018-11-13 07:51 METAR KTEB 131251Z 03006KT 2SM -RA BR BKN005 OVC015 08/07 A2989 RMK AO2 SLP122
                 P0016 T00780072 $ =
2018-11-13 06:51 METAR KTEB 131151Z 01007KT 2SM -RA BR OVC005 07/07 A2996 RMK AO2 SLP145 P0011
                 60059 70069 T00720067 10072 20061 58044 $ =
2018-11-13 05:51 METAR KTEB 131051Z 01006KT 4SM RA BR OVC005 07/07 A3001 RMK AO2 PRESFR SLP161
                 P0012 T00720067 $ =
2018-11-13 04:51 METAR KTEB 130951Z 01006KT 3SM RA BR OVC005 07/06 A3006 RMK AO2 SLP177 P0012
                 T00670061 $ =
2018-11-13 04:35 METAR KTEB 130935Z 01004KT 2 1/2SM -RA BR OVC007 07/06 A3006 RMK AO2 P0009
                 T00670061 $ =
2018-11-13 04:05 METAR KTEB 130905Z 02006KT 2 1/2SM RA BR OVC004 07/06 A3008 RMK AO2 P0002
                 T00670061 $ =
2018-11-13 03:51 METAR KTEB 130851Z 01007KT 3SM RA BR OVC005 07/06 A3009 RMK AO2 SLP188 P0008
                 60024 T00670061 58049 $ =
2018-11-13 02:51 METAR KTEB 130751Z 36005KT 3SM RA BR BKN005 OVC012 07/06 A3015 RMK AO2 SLP210
                 P0011 T00670061 $ =
2018-11-13 02:43 METAR KTEB 130743Z 01006KT 3SM RA BR BKN005 OVC012 07/06 A3016 =
2018-11-13 02:27 METAR KTEB 130727Z 01005KT 3SM RA BR OVC010 07/06 A3017 RMK AO2 P0006 T00670061
                 $ =
2018-11-13 01:51 METAR KTEB 130651Z 02003KT 4SM RA BR OVC015 07/06 A3018 RMK AO2 SLP220 P0005
                 T00670061 $ =
2018-11-13 01:33 METAR KTEB 130633Z 04005KT 4SM RA BR BKN018 OVC027 07/06 A3019 RMK AO2 P0004
                 T00670056 $ =
2018-11-13 00:51 METAR KTEB 130551Z 01004KT 4SM RA BR SCT020 BKN030 OVC040 07/06 A3023 RMK AO2
                 SLP237 P0005 60010 T00670056 10089 20067 56028 $ =
2018-11-13 00:07 METAR KTEB 130507Z 35004KT 5SM RA BR BKN025 OVC039 07/06 A3027 =
2018-11-12 23:51 METAR KTEB 130451Z 35004KT 6SM -RA BR FEW028 BKN037 OVC055 07/06 A3026 RMK AO2
                 SLP248 P0003 T00670056 401111017 $ =
2018-11-12 22:51 METAR KTEB 130351Z 04005KT 8SM RA BR SCT041 OVC048 07/03 A3028 RMK AO2 RAB24
                 PRESFR SLP252 P0002 T00720033 $ =
2018-11-12 21:51 METAR KTEB 130251Z 04003KT 10SM OVC038 08/02 A3032 RMK AO2 SLP265 T00830022
                 58010 $ =
2018-11-12 20:51 METAR KTEB 130151Z 00000KT 10SM BKN100 OVC120 08/02 A3034 RMK AO2 SLP273
                 T00830022 $ =

Support USWX by starting your Amazon purchase here.